LFKFLIEA

Guest
Details From LFKF - Figari Sud Corse
To LIEA - ALGHERO
Flight Number -
Tags generated
Created
Modified
Stats Distance 65 nm / 119 km
Max Altitude 3,700 ft / 1,128 m
Waypoints 3
Social Downloads 0
Likes 0
Share VATSIM

Download

Looking for another format? Having issues loading an existing format? Contact us
Advertisement - Login to hide

Notes

Basic altitude profile: - Ascent Rate: 400ft/min - Ascent Speed: 95kts - Cruise Altitude: 3500ft - Cruise Speed: 125kts - Descent Rate: 400ft/min - Descent Speed: 90kts Options: - Use NATs: no - Use PACOTS: no - Use low airways: yes - Use high airways: no

Route

LFKF TEREZ LIEA

ID Type Via Altitude Latitude Longitude Leg Dist Tot Dist Heading (true) Name
O LFKF APT - 0 ft / 0 m 41.50206˚ 9.09696˚ - 0 nm - Figari Sud Corse
TEREZ FIX - 3,700 ft / 1,128 m 41.33333˚ 9.03694˚ 10 nm 10 nm 195° / 195° -
O LIEA APT - 0 ft / 0 m 40.63213˚ 8.29077˚ 54 nm 64 nm 219° / 219° ALGHERO

Altitude Profile

Advertisement - Login to hide

LFKF

Details ICAO LFKF (FSC)
Name Figari Sud Corse
Region France
Timezone Europe/Paris (UTC+1.0)
Stats Elevation 87 ft / 27 m (AMSL)
Location 41.502064° 9.096960°
Runways 1
Magnetic Variation 2.379° E

METAR

LFKF 170800Z AUTO VRB01KT CAVOK 01/M01 Q1017 NOSIG

Decode

TAF

TAF LFKF 170200Z 1703/1803 VRB05KT 9999 FEW030 SCT060 BKN150 TEMPO 1711/1718 06010KT PROB30 TEMPO 1715/1724 4000 SHRA SCT025TCU

Decode

Departure Runways

ID Width Length Bearing (true) Bearing (mag) Surface Threshold Offset Overrun Length
05 148 ft / 45 m 8,131 ft / 2,478 m 47.42° 45.04° Asphalt 0 ft / 0 m 0 ft / 0 m
23 148 ft / 45 m 8,131 ft / 2,478 m 227.44° 225.06° Asphalt 0 ft / 0 m 0 ft / 0 m

LIEA

Details ICAO LIEA (AHO)
Name ALGHERO
Region Italy
Timezone Europe/Rome (UTC+1.0)
Stats Elevation 87 ft / 27 m (AMSL)
Location 40.632132° 8.290774°
Runways 1
Magnetic Variation 2.195° E

METAR

LIEA 170750Z VRB01KT 9999 -DZ FEW030TCU SCT040 06/04 Q1017

Decode

TAF

TAF LIEA 170500Z 1706/1806 35010KT 9999 SCT025 BECMG 1719/1721 VRB05KT

Decode

Destination Runways

ID Width Length Bearing (true) Bearing (mag) Surface Threshold Offset Overrun Length
02 148 ft / 45 m 9,854 ft / 3,004 m 24.51° 22.32° Asphalt 0 ft / 0 m 0 ft / 0 m
20 148 ft / 45 m 9,854 ft / 3,004 m 204.52° 202.33° Asphalt 0 ft / 0 m 0 ft / 0 m

Approach Navaids

Runway Type Ident Frequency Range Bearing (true) Bearing (mag) Slope Elevation
20 Localiser IALF 110.15 MHz 18 nm / 33 km 204.47° 202.28° - 72 ft / 22 m (AMSL)
20 Glidescope IALF 110.15 MHz 10 nm / 19 km 204.51° 202.32° 3.00° 133 ft / 41 m (AMSL)
20 DME IALF 110.15 MHz 25 nm / 46 km - - - 133 ft / 41 m (AMSL)